createdAt,value
2023-05-10T00:01:33.612Z,3.83
2023-05-10T00:04:03.190Z,4.17
2023-05-10T00:06:31.400Z,3.67
2023-05-10T00:09:00.156Z,4.10
2023-05-10T00:11:28.605Z,4.20
2023-05-10T00:13:58.581Z,4.03
2023-05-10T00:16:26.798Z,3.90
2023-05-10T00:18:54.973Z,4.47
2023-05-10T00:21:23.776Z,3.80
2023-05-10T00:23:51.982Z,3.93
2023-05-10T00:26:20.062Z,4.10
2023-05-10T00:28:48.347Z,3.83
2023-05-10T00:31:18.362Z,3.70
2023-05-10T00:33:46.721Z,3.90
2023-05-10T00:36:14.800Z,4.20
2023-05-10T00:38:42.883Z,4.00
2023-05-10T00:41:11.079Z,3.93
2023-05-10T00:43:39.361Z,4.33
2023-05-10T00:46:10.437Z,4.97
2023-05-10T00:48:40.496Z,4.70
2023-05-10T00:51:12.211Z,4.87
2023-05-10T00:53:40.489Z,4.90
2023-05-10T00:56:08.888Z,4.57
2023-05-10T00:58:37.422Z,4.10
2023-05-10T01:01:07.121Z,4.67
2023-05-10T01:03:35.554Z,4.40
2023-05-10T01:06:05.972Z,4.90
2023-05-10T01:08:34.689Z,4.73
2023-05-10T01:11:03.409Z,5.03
2023-05-10T01:13:35.607Z,4.60
2023-05-10T01:16:04.509Z,4.80
2023-05-10T01:18:35.073Z,4.50
2023-05-10T01:21:17.197Z,4.87
2023-05-10T01:24:06.137Z,5.10
2023-05-10T01:27:21.809Z,4.60
2023-05-10T01:30:16.127Z,4.90
2023-05-10T01:32:56.774Z,5.37
2023-05-10T01:35:34.042Z,4.43
2023-05-10T01:38:10.292Z,4.70
2023-05-10T01:40:45.310Z,4.53
2023-05-10T01:43:25.929Z,5.00
2023-05-10T01:46:11.364Z,4.10
2023-05-10T01:48:48.034Z,4.80
2023-05-10T01:51:21.938Z,4.80
2023-05-10T01:53:52.402Z,5.80
2023-05-10T01:56:26.816Z,5.03
2023-05-10T01:58:56.623Z,4.70
2023-05-10T02:01:26.148Z,4.47
2023-05-10T02:03:57.173Z,4.70
2023-05-10T02:06:27.736Z,5.10
2023-05-10T02:08:56.452Z,4.50
2023-05-10T02:11:26.798Z,4.77
2023-05-10T02:13:58.051Z,5.57
2023-05-10T02:16:28.647Z,4.70
2023-05-10T02:19:01.157Z,5.30
2023-05-10T02:21:32.985Z,4.77
2023-05-10T02:24:04.205Z,5.10
2023-05-10T02:26:36.211Z,5.13
2023-05-10T02:29:05.992Z,5.97
2023-05-10T02:31:35.533Z,4.90
2023-05-10T02:34:06.955Z,5.37
2023-05-10T02:36:36.160Z,5.70
2023-05-10T02:39:05.384Z,5.37
2023-05-10T02:41:35.229Z,6.00
2023-05-10T02:44:07.799Z,5.27
2023-05-10T02:46:36.963Z,5.90
2023-05-10T02:49:06.805Z,5.83
2023-05-10T02:51:38.379Z,5.50
2023-05-10T02:54:13.100Z,5.40
2023-05-10T02:56:49.254Z,5.50
2023-05-10T02:59:17.368Z,5.63
2023-05-10T03:01:46.146Z,5.70
2023-05-10T03:04:16.252Z,5.63
2023-05-10T03:06:44.843Z,5.33
2023-05-10T03:09:16.668Z,5.07
2023-05-10T03:12:09.397Z,6.20
2023-05-10T03:14:50.263Z,5.20
2023-05-10T03:17:37.726Z,5.37
2023-05-10T03:20:12.720Z,5.20
2023-05-10T03:22:45.449Z,5.50
2023-05-10T03:25:14.706Z,5.57
2023-05-10T03:27:45.691Z,5.43
2023-05-10T03:30:15.477Z,5.40
2023-05-10T03:32:43.867Z,5.60
2023-05-10T03:35:15.458Z,5.47
2023-05-10T03:37:44.131Z,5.63
2023-05-10T03:40:13.706Z,5.53
2023-05-10T03:42:41.846Z,5.93
2023-05-10T03:45:11.776Z,5.53
2023-05-10T03:47:40.394Z,5.43
2023-05-10T03:50:11.413Z,5.40
2023-05-10T03:52:41.223Z,5.60
2023-05-10T03:55:10.015Z,5.80
2023-05-10T03:57:38.328Z,5.67
2023-05-10T04:00:07.434Z,5.37
2023-05-10T04:02:35.840Z,5.53
2023-05-10T04:05:04.226Z,5.37
2023-05-10T04:07:32.908Z,4.90
2023-05-10T04:10:03.846Z,5.77
2023-05-10T04:12:32.156Z,5.50
2023-05-10T04:15:00.483Z,5.60
2023-05-10T04:17:28.683Z,5.37
2023-05-10T04:19:58.678Z,5.20
2023-05-10T04:22:27.579Z,5.33
2023-05-10T04:24:55.971Z,5.37
2023-05-10T04:27:26.056Z,5.33
2023-05-10T04:29:54.358Z,5.07
2023-05-10T04:32:22.657Z,5.77
2023-05-10T04:34:51.944Z,5.40
2023-05-10T04:37:20.890Z,4.87
2023-05-10T04:39:49.199Z,4.97
2023-05-10T04:42:21.770Z,4.97
2023-05-10T04:44:51.564Z,4.77
2023-05-10T04:47:19.971Z,5.37
2023-05-10T04:49:48.760Z,4.63
2023-05-10T04:52:18.983Z,4.63
2023-05-10T04:54:47.355Z,5.00
2023-05-10T04:57:16.119Z,4.60
2023-05-10T04:59:44.817Z,4.47
2023-05-10T05:02:14.492Z,4.90
2023-05-10T05:04:43.238Z,4.43
2023-05-10T05:07:11.464Z,4.00
2023-05-10T05:09:39.684Z,4.83
2023-05-10T05:12:08.218Z,4.10
2023-05-10T05:14:36.455Z,4.07
2023-05-10T05:17:05.052Z,4.57
2023-05-10T05:19:35.096Z,4.40
2023-05-10T05:22:03.334Z,4.00
2023-05-10T05:24:37.522Z,4.47
2023-05-10T05:27:05.877Z,4.00
2023-05-10T05:29:34.172Z,3.97
2023-05-10T05:32:02.548Z,4.03
2023-05-10T05:34:30.819Z,3.97
2023-05-10T05:37:00.418Z,3.63
2023-05-10T05:39:28.744Z,3.87
2023-05-10T05:41:59.473Z,3.77
2023-05-10T05:44:30.015Z,4.07
2023-05-10T05:46:58.658Z,4.23
2023-05-10T05:49:26.904Z,3.80
2023-05-10T05:51:55.148Z,4.07
2023-05-10T05:54:24.816Z,3.60
2023-05-10T05:56:53.492Z,3.90
2023-05-10T05:59:22.186Z,3.97
2023-05-10T06:01:50.479Z,3.30
2023-05-10T06:04:19.465Z,3.50
2023-05-10T06:06:47.717Z,3.50
2023-05-10T06:09:15.983Z,3.20
2023-05-10T06:11:45.571Z,3.60
2023-05-10T06:14:13.794Z,4.30
2023-05-10T06:16:42.032Z,4.13
2023-05-10T06:19:10.360Z,3.43
2023-05-10T06:21:38.689Z,3.57
2023-05-10T06:24:07.984Z,3.60
2023-05-10T06:26:36.634Z,3.57
2023-05-10T06:29:06.321Z,3.73
2023-05-10T06:31:35.014Z,3.43
2023-05-10T06:34:03.221Z,4.17
2023-05-10T06:36:31.828Z,3.23
2023-05-10T06:39:00.053Z,3.47
2023-05-10T06:41:28.228Z,3.80
2023-05-10T06:43:56.679Z,3.70
2023-05-10T06:46:26.950Z,3.10
2023-05-10T06:48:55.436Z,3.40
2023-05-10T06:51:23.642Z,3.00
2023-05-10T06:53:51.766Z,3.23
2023-05-10T06:56:22.476Z,3.37
2023-05-10T06:58:50.763Z,3.20
2023-05-10T07:01:19.302Z,3.60
2023-05-10T07:03:49.042Z,3.33
2023-05-10T07:06:29.455Z,3.20
2023-05-10T07:09:01.026Z,3.43
2023-05-10T07:11:29.327Z,3.23
2023-05-10T07:13:57.474Z,3.20
2023-05-10T07:16:25.696Z,3.03
2023-05-10T07:18:55.499Z,2.90
2023-05-10T07:21:25.147Z,2.77
2023-05-10T07:23:54.147Z,3.60
2023-05-10T07:26:23.302Z,3.27
2023-05-10T07:28:51.560Z,2.80
2023-05-10T07:31:19.708Z,3.30
2023-05-10T07:33:48.341Z,2.90
2023-05-10T07:36:18.354Z,2.70
2023-05-10T07:38:46.526Z,2.70
2023-05-10T07:41:15.228Z,3.03
2023-05-10T07:43:44.389Z,2.60
2023-05-10T07:46:15.448Z,2.87
2023-05-10T07:48:43.700Z,3.17
2023-05-10T07:51:11.890Z,3.00
2023-05-10T07:53:41.629Z,2.80
2023-05-10T07:56:28.237Z,3.30
2023-05-10T07:58:57.242Z,3.10
2023-05-10T08:01:25.528Z,3.50
2023-05-10T08:03:54.644Z,3.30
2023-05-10T08:06:23.334Z,3.17
2023-05-10T08:08:54.628Z,2.83
2023-05-10T08:11:22.999Z,3.33
2023-05-10T08:13:52.865Z,3.50
2023-05-10T08:16:21.322Z,3.03
2023-05-10T08:18:50.352Z,3.30
2023-05-10T08:21:18.950Z,3.00
2023-05-10T08:23:47.139Z,3.03
2023-05-10T08:26:25.656Z,3.20
2023-05-10T08:28:53.912Z,3.20
2023-05-10T08:31:22.257Z,3.17
2023-05-10T08:33:53.978Z,2.90
2023-05-10T08:36:27.571Z,3.10
2023-05-10T08:38:56.371Z,3.13
2023-05-10T08:41:27.963Z,2.60
2023-05-10T08:43:57.750Z,2.60
2023-05-10T08:46:26.389Z,2.87
2023-05-10T08:48:57.061Z,2.63
2023-05-10T08:51:27.937Z,2.73
2023-05-10T08:53:56.852Z,2.77
2023-05-10T08:56:26.796Z,3.10
2023-05-10T08:58:56.113Z,2.80
2023-05-10T09:01:24.716Z,2.90
2023-05-10T09:03:53.189Z,2.40
2023-05-10T09:06:23.848Z,2.67
2023-05-10T09:08:52.786Z,2.87
2023-05-10T09:11:22.927Z,2.57
2023-05-10T09:13:55.758Z,2.60
2023-05-10T09:16:24.401Z,2.93
2023-05-10T09:18:52.675Z,2.80
2023-05-10T09:21:22.405Z,2.70
2023-05-10T09:23:55.317Z,2.60
2023-05-10T09:26:25.392Z,3.20
2023-05-10T09:28:57.017Z,2.40
2023-05-10T09:31:26.326Z,3.03
2023-05-10T09:33:55.699Z,2.80
2023-05-10T09:36:23.983Z,2.90
2023-05-10T09:38:53.770Z,2.90
2023-05-10T09:41:24.204Z,2.37
2023-05-10T09:43:57.985Z,3.00
2023-05-10T09:46:27.794Z,2.97
2023-05-10T09:48:56.086Z,2.80
2023-05-10T09:51:24.645Z,2.60
2023-05-10T09:54:11.805Z,2.80
2023-05-10T09:56:41.691Z,3.13
2023-05-10T09:59:13.697Z,2.60
2023-05-10T10:01:43.853Z,2.87
2023-05-10T10:04:12.964Z,3.03
2023-05-10T10:06:41.733Z,3.10
2023-05-10T10:09:10.729Z,2.87
2023-05-10T10:11:42.460Z,2.90
2023-05-10T10:14:10.844Z,2.87
2023-05-10T10:16:48.419Z,3.03
2023-05-10T10:19:25.255Z,2.90
2023-05-10T10:21:56.058Z,2.90
2023-05-10T10:24:24.375Z,2.90
2023-05-10T10:26:58.381Z,2.70
2023-05-10T10:29:37.109Z,2.63
2023-05-10T10:32:14.864Z,2.40
2023-05-10T10:34:44.984Z,2.67
2023-05-10T10:37:25.412Z,2.87
2023-05-10T10:39:53.677Z,2.80
2023-05-10T10:42:47.602Z,2.77
2023-05-10T10:45:18.928Z,2.83
2023-05-10T10:47:47.590Z,2.40
2023-05-10T10:50:19.760Z,2.87
2023-05-10T10:52:50.645Z,2.67
2023-05-10T10:55:23.361Z,2.50
2023-05-10T10:57:56.516Z,2.80
2023-05-10T11:00:27.787Z,2.97
2023-05-10T11:03:00.760Z,2.60
2023-05-10T11:05:48.348Z,2.83
2023-05-10T11:08:19.447Z,2.70
2023-05-10T11:11:08.124Z,2.60
2023-05-10T11:13:41.118Z,3.27
2023-05-10T11:16:19.922Z,2.80
2023-05-10T11:19:08.180Z,2.50
2023-05-10T11:21:48.296Z,2.80
2023-05-10T11:24:24.878Z,3.10
2023-05-10T11:26:53.519Z,3.07
2023-05-10T11:29:22.213Z,3.10
2023-05-10T11:31:54.209Z,3.10
2023-05-10T11:34:27.143Z,2.47
2023-05-10T11:36:59.849Z,2.90
2023-05-10T11:39:29.407Z,3.17
2023-05-10T11:41:59.056Z,2.97
2023-05-10T11:44:32.165Z,2.87
2023-05-10T11:47:01.512Z,3.20
2023-05-10T11:49:29.940Z,2.70
2023-05-10T11:52:08.613Z,2.63
2023-05-10T11:54:37.169Z,3.10
2023-05-10T11:57:06.174Z,2.70
2023-05-10T11:59:34.306Z,2.70
2023-05-10T12:02:04.449Z,3.10
2023-05-10T12:04:33.215Z,2.90
2023-05-10T12:07:01.946Z,3.00
2023-05-10T12:09:43.080Z,3.20
2023-05-10T12:12:12.820Z,2.67
2023-05-10T12:14:41.064Z,2.80
2023-05-10T12:17:13.690Z,2.70
2023-05-10T12:19:42.172Z,2.83
2023-05-10T12:22:22.839Z,2.73
2023-05-10T12:24:54.642Z,3.13
2023-05-10T12:27:22.678Z,3.40
2023-05-10T12:29:50.891Z,2.80
2023-05-10T12:32:19.095Z,2.57
2023-05-10T12:34:49.140Z,2.77
2023-05-10T12:37:17.518Z,2.93
2023-05-10T12:39:47.435Z,3.33
2023-05-10T12:42:17.070Z,2.97
2023-05-10T12:44:45.903Z,3.07
2023-05-10T12:47:14.603Z,3.13
2023-05-10T12:49:47.018Z,2.67
2023-05-10T12:52:15.204Z,3.07
2023-05-10T12:54:43.346Z,2.80
2023-05-10T12:57:17.740Z,3.03
2023-05-10T12:59:47.527Z,2.90
2023-05-10T13:02:16.180Z,3.27
2023-05-10T13:04:45.040Z,2.90
2023-05-10T13:07:13.391Z,2.77
2023-05-10T13:09:44.497Z,2.40
2023-05-10T13:12:12.904Z,2.87
2023-05-10T13:14:51.269Z,2.53
2023-05-10T13:17:19.433Z,2.90
2023-05-10T13:19:47.743Z,2.23
2023-05-10T13:22:18.746Z,2.37
2023-05-10T13:24:51.341Z,2.73
2023-05-10T13:27:19.651Z,2.70
2023-05-10T13:29:52.724Z,2.77
2023-05-10T13:32:21.430Z,3.13
2023-05-10T13:34:49.672Z,2.67
2023-05-10T13:37:17.905Z,2.50
2023-05-10T13:39:49.124Z,3.00
2023-05-10T13:42:18.425Z,2.63
2023-05-10T13:44:49.659Z,2.83
2023-05-10T13:47:19.332Z,3.10
2023-05-10T13:49:47.881Z,2.70
2023-05-10T13:52:16.019Z,3.03
2023-05-10T13:54:44.245Z,3.00
2023-05-10T13:57:14.862Z,2.77
2023-05-10T13:59:46.079Z,2.60
2023-05-10T14:02:14.305Z,2.57
2023-05-10T14:04:44.528Z,2.63
2023-05-10T14:07:12.822Z,2.50
2023-05-10T14:09:41.468Z,2.90
2023-05-10T14:12:10.815Z,2.70
2023-05-10T14:14:39.087Z,2.67
2023-05-10T14:17:16.641Z,2.80
2023-05-10T14:19:46.218Z,2.70
2023-05-10T14:22:14.474Z,2.53
2023-05-10T14:24:45.103Z,2.73
2023-05-10T14:27:13.428Z,3.00
2023-05-10T14:29:41.647Z,2.80
2023-05-10T14:32:13.228Z,2.57
2023-05-10T14:34:41.616Z,2.57
2023-05-10T14:37:13.297Z,2.97
2023-05-10T14:39:41.537Z,2.57
2023-05-10T14:42:09.734Z,2.97
2023-05-10T14:44:38.867Z,2.60
2023-05-10T14:47:07.782Z,2.40
2023-05-10T14:49:36.402Z,3.23
2023-05-10T14:52:04.636Z,2.50
2023-05-10T14:54:37.032Z,2.90
2023-05-10T14:57:05.377Z,2.60
2023-05-10T14:59:33.516Z,2.90
2023-05-10T15:02:13.478Z,3.17
2023-05-10T15:04:42.069Z,2.60
2023-05-10T15:07:10.778Z,2.97
2023-05-10T15:09:40.830Z,3.20
2023-05-10T15:12:09.172Z,3.27
2023-05-10T15:14:37.770Z,3.00
2023-05-10T15:17:07.216Z,2.63
2023-05-10T15:19:42.520Z,3.37
2023-05-10T15:22:11.414Z,2.60
2023-05-10T15:24:40.988Z,2.97
2023-05-10T15:27:09.131Z,2.60
2023-05-10T15:29:37.357Z,2.73
2023-05-10T15:32:05.768Z,2.67
2023-05-10T15:34:35.130Z,2.80
2023-05-10T15:37:05.342Z,3.10
2023-05-10T15:39:33.700Z,2.97
2023-05-10T15:42:04.842Z,2.70
2023-05-10T15:44:32.992Z,2.40
2023-05-10T15:47:01.168Z,2.60
2023-05-10T15:49:29.402Z,2.80
2023-05-10T15:51:57.801Z,2.80
2023-05-10T15:54:28.474Z,2.67
2023-05-10T15:56:56.749Z,2.72
2023-05-10T15:59:26.927Z,2.87
2023-05-10T16:01:55.303Z,2.58
2023-05-10T16:04:24.429Z,2.85
2023-05-10T16:06:53.047Z,2.60
2023-05-10T16:09:21.740Z,2.90
2023-05-10T16:11:49.931Z,2.63
2023-05-10T16:14:21.545Z,2.53
2023-05-10T16:16:51.574Z,2.80
2023-05-10T16:19:19.915Z,2.58
2023-05-10T16:21:50.559Z,2.50
2023-05-10T16:24:18.848Z,2.92
2023-05-10T16:26:47.793Z,2.85
2023-05-10T16:29:16.011Z,2.70
2023-05-10T16:31:44.226Z,2.60
2023-05-10T16:34:13.843Z,2.67
2023-05-10T16:36:42.015Z,2.90
2023-05-10T16:39:10.745Z,2.80
2023-05-10T16:41:40.765Z,2.53
2023-05-10T16:44:09.057Z,2.43
2023-05-10T16:46:37.258Z,2.60
2023-05-10T16:49:05.566Z,2.80
2023-05-10T16:51:35.099Z,2.50
2023-05-10T16:54:06.055Z,3.00
2023-05-10T16:56:34.219Z,2.23
2023-05-10T16:59:02.631Z,2.80
2023-05-10T17:01:30.816Z,2.53
2023-05-10T17:03:59.575Z,2.60
2023-05-10T17:06:27.699Z,2.67
2023-05-10T17:09:01.149Z,2.40
2023-05-10T17:11:31.050Z,2.50
2023-05-10T17:14:01.447Z,2.60
2023-05-10T17:16:30.382Z,2.10
2023-05-10T17:18:59.600Z,2.50
2023-05-10T17:21:27.851Z,2.80
2023-05-10T17:23:56.437Z,2.50
2023-05-10T17:26:27.631Z,2.43
2023-05-10T17:28:56.722Z,2.70
2023-05-10T17:31:25.012Z,2.60
2023-05-10T17:33:53.483Z,2.33
2023-05-10T17:36:21.666Z,2.60
2023-05-10T17:38:51.029Z,2.40
2023-05-10T17:41:21.871Z,2.40
2023-05-10T17:43:52.097Z,2.50
2023-05-10T17:46:20.433Z,2.60
2023-05-10T17:48:48.957Z,2.40
2023-05-10T17:51:17.692Z,2.30
2023-05-10T17:53:45.992Z,2.40
2023-05-10T17:56:14.183Z,2.60
2023-05-10T17:58:42.606Z,2.50
2023-05-10T18:01:12.647Z,2.43
2023-05-10T18:03:41.054Z,2.60
2023-05-10T18:06:09.497Z,2.50
2023-05-10T18:08:37.728Z,2.70
2023-05-10T18:11:05.998Z,2.60
2023-05-10T18:13:34.627Z,2.53
2023-05-10T18:16:03.360Z,2.37
2023-05-10T18:18:33.119Z,2.80
2023-05-10T18:21:01.603Z,2.10
2023-05-10T18:23:30.005Z,2.40
2023-05-10T18:25:58.465Z,1.90
2023-05-10T18:28:30.337Z,2.43
2023-05-10T18:31:01.992Z,2.30
2023-05-10T18:33:30.318Z,2.90
2023-05-10T18:36:00.099Z,2.30
2023-05-10T18:38:28.847Z,2.50
2023-05-10T18:40:57.925Z,2.30
2023-05-10T18:43:26.194Z,2.40
2023-05-10T18:45:54.446Z,2.97
2023-05-10T18:48:23.211Z,2.93
2023-05-10T18:50:51.388Z,2.27
2023-05-10T18:53:22.651Z,2.10
2023-05-10T18:55:58.283Z,2.53
2023-05-10T18:58:27.339Z,2.50
2023-05-10T19:00:55.567Z,2.67
2023-05-10T19:03:24.179Z,2.67
2023-05-10T19:05:52.313Z,2.50
2023-05-10T19:08:21.882Z,2.70
2023-05-10T19:10:50.096Z,2.60
2023-05-10T19:13:18.691Z,2.57
2023-05-10T19:15:46.853Z,2.30
2023-05-10T19:18:17.017Z,2.70
2023-05-10T19:20:45.311Z,2.93
2023-05-10T19:23:15.656Z,2.20
2023-05-10T19:25:46.207Z,2.40
2023-05-10T19:28:14.885Z,2.30
2023-05-10T19:30:43.070Z,2.80
2023-05-10T19:33:12.647Z,2.83
2023-05-10T19:35:40.808Z,2.80
2023-05-10T19:38:08.941Z,2.27
2023-05-10T19:40:37.466Z,3.00
2023-05-10T19:43:07.232Z,2.53
2023-05-10T19:45:36.638Z,2.83
2023-05-10T19:48:05.525Z,2.70
2023-05-10T19:50:34.308Z,2.90
2023-05-10T19:53:02.604Z,2.57
2023-05-10T19:55:33.604Z,2.30
2023-05-10T19:58:02.013Z,2.70
2023-05-10T20:00:31.983Z,2.53
2023-05-10T20:03:00.368Z,2.60
2023-05-10T20:05:31.270Z,3.30
2023-05-10T20:08:00.375Z,2.50
2023-05-10T20:10:28.565Z,2.50
2023-05-10T20:12:58.719Z,2.47
2023-05-10T20:15:28.755Z,2.67
2023-05-10T20:18:05.594Z,2.43
2023-05-10T20:20:33.806Z,3.30
2023-05-10T20:23:02.726Z,2.90
2023-05-10T20:25:30.972Z,2.80
2023-05-10T20:27:59.051Z,2.70
2023-05-10T20:30:27.617Z,2.90
2023-05-10T20:32:57.208Z,2.43
2023-05-10T20:35:25.388Z,2.80
2023-05-10T20:37:53.457Z,2.40
2023-05-10T20:40:21.735Z,2.77
2023-05-10T20:42:54.070Z,3.00
2023-05-10T20:45:22.171Z,3.23
2023-05-10T20:47:51.636Z,2.77
2023-05-10T20:50:21.540Z,3.00
2023-05-10T20:52:51.061Z,2.87
2023-05-10T20:55:19.701Z,3.03
2023-05-10T20:57:48.008Z,3.20
2023-05-10T21:00:17.139Z,2.70
2023-05-10T21:02:46.452Z,3.03
2023-05-10T21:05:18.814Z,3.27
2023-05-10T21:07:49.483Z,3.30
2023-05-10T21:10:17.943Z,3.20
2023-05-10T21:12:46.479Z,2.60
2023-05-10T21:15:14.707Z,2.77
2023-05-10T21:17:42.860Z,2.70
2023-05-10T21:20:12.247Z,3.13
2023-05-10T21:22:41.126Z,3.20
2023-05-10T21:25:11.634Z,3.20
2023-05-10T21:27:40.929Z,3.00
2023-05-10T21:30:10.451Z,3.00
2023-05-10T21:32:39.005Z,2.80
2023-05-10T21:35:08.763Z,2.93
2023-05-10T21:37:37.431Z,3.40
2023-05-10T21:40:06.343Z,3.20
2023-05-10T21:42:36.286Z,2.80
2023-05-10T21:45:07.431Z,2.80
2023-05-10T21:47:36.740Z,3.17
2023-05-10T21:50:05.086Z,2.90
2023-05-10T21:52:35.240Z,3.20
2023-05-10T21:55:03.432Z,3.30
2023-05-10T21:57:32.077Z,3.20
2023-05-10T22:00:03.805Z,3.03
2023-05-10T22:02:32.037Z,3.17
2023-05-10T22:05:00.747Z,3.13
2023-05-10T22:07:38.427Z,2.80
2023-05-10T22:10:07.852Z,2.70
2023-05-10T22:12:36.622Z,3.60
2023-05-10T22:15:10.191Z,2.33
2023-05-10T22:17:40.078Z,2.60
2023-05-10T22:20:09.625Z,3.00
2023-05-10T22:22:48.046Z,3.37
2023-05-10T22:25:16.351Z,2.97
2023-05-10T22:27:51.136Z,3.47
2023-05-10T22:30:20.961Z,3.40
2023-05-10T22:32:49.161Z,3.80
2023-05-10T22:35:18.047Z,3.30
2023-05-10T22:37:51.544Z,3.53
2023-05-10T22:40:20.223Z,3.33
2023-05-10T22:42:50.248Z,3.27
2023-05-10T22:45:18.442Z,3.43
2023-05-10T22:47:49.028Z,2.77
2023-05-10T22:50:18.126Z,2.97
2023-05-10T22:52:46.564Z,3.50
2023-05-10T22:55:14.805Z,2.87
2023-05-10T22:57:43.596Z,3.67
2023-05-10T23:00:12.666Z,3.70
2023-05-10T23:02:41.434Z,3.03
2023-05-10T23:05:12.282Z,2.97
2023-05-10T23:07:40.533Z,3.03
2023-05-10T23:10:09.498Z,3.33
2023-05-10T23:12:37.689Z,3.20
2023-05-10T23:15:06.666Z,3.30
2023-05-10T23:17:34.909Z,3.00
2023-05-10T23:20:03.153Z,3.00
2023-05-10T23:22:32.826Z,2.73
2023-05-10T23:25:01.145Z,3.10
2023-05-10T23:27:30.739Z,3.40
2023-05-10T23:29:59.081Z,3.00
2023-05-10T23:32:27.390Z,3.00
2023-05-10T23:34:55.720Z,3.20
2023-05-10T23:37:23.975Z,3.23
2023-05-10T23:39:53.814Z,2.90
2023-05-10T23:42:22.496Z,3.40
2023-05-10T23:44:52.879Z,2.90
2023-05-10T23:47:21.388Z,3.50
2023-05-10T23:49:51.788Z,2.90
2023-05-10T23:52:22.927Z,3.20
2023-05-10T23:54:51.154Z,3.50
2023-05-10T23:57:21.633Z,3.67
2023-05-10T23:59:49.821Z,2.90
